sensor_id;sensor_type;location;lat;lon;timestamp;pressure;altitude;pressure_sealevel;temperature;humidity
37486;BME280;23341;50.296;18.960;2023-04-28T00:02:18;49314.66;;;-144.43;63.73
37486;BME280;23341;50.296;18.960;2023-04-28T00:07:24;49304.66;;;-144.43;63.89
37486;BME280;23341;50.296;18.960;2023-04-28T00:12:28;49316.66;;;-144.43;64.72
37486;BME280;23341;50.296;18.960;2023-04-28T00:17:33;49326.66;;;-144.43;64.97
37486;BME280;23341;50.296;18.960;2023-04-28T00:22:39;49274.69;;;-144.43;65.76
37486;BME280;23341;50.296;18.960;2023-04-28T00:27:43;49300.66;;;-144.43;66.08
37486;BME280;23341;50.296;18.960;2023-04-28T00:32:47;49312.66;;;-144.43;66.55
37486;BME280;23341;50.296;18.960;2023-04-28T00:37:53;49352.63;;;-144.43;66.50
37486;BME280;23341;50.296;18.960;2023-04-28T00:42:57;49352.63;;;-144.43;66.50
37486;BME280;23341;50.296;18.960;2023-04-28T00:48:02;49338.63;;;-144.43;65.96
37486;BME280;23341;50.296;18.960;2023-04-28T00:53:09;49322.66;;;-144.43;66.46
37486;BME280;23341;50.296;18.960;2023-04-28T00:58:14;49328.66;;;-144.43;67.33
37486;BME280;23341;50.296;18.960;2023-04-28T01:03:18;49298.66;;;-144.43;68.71
37486;BME280;23341;50.296;18.960;2023-04-28T01:08:27;49290.69;;;-144.43;68.34
37486;BME280;23341;50.296;18.960;2023-04-28T01:13:33;49290.69;;;-144.43;68.44
37486;BME280;23341;50.296;18.960;2023-04-28T01:18:38;49290.69;;;-144.43;69.11
37486;BME280;23341;50.296;18.960;2023-04-28T01:23:47;49286.69;;;-144.43;69.48
37486;BME280;23341;50.296;18.960;2023-04-28T01:28:51;49306.66;;;-144.43;70.60
37486;BME280;23341;50.296;18.960;2023-04-28T01:33:56;49322.66;;;-144.43;70.57
37486;BME280;23341;50.296;18.960;2023-04-28T01:39:02;49328.66;;;-144.43;71.85
37486;BME280;23341;50.296;18.960;2023-04-28T01:44:07;49324.66;;;-144.43;71.81
37486;BME280;23341;50.296;18.960;2023-04-28T01:49:13;49298.66;;;-144.43;71.14
37486;BME280;23341;50.296;18.960;2023-04-28T01:54:19;49308.66;;;-144.43;72.14
37486;BME280;23341;50.296;18.960;2023-04-28T01:59:23;49338.63;;;-144.43;71.74
37486;BME280;23341;50.296;18.960;2023-04-28T02:04:28;49322.66;;;-144.43;71.59
37486;BME280;23341;50.296;18.960;2023-04-28T02:09:34;49332.66;;;-144.43;71.66
37486;BME280;23341;50.296;18.960;2023-04-28T02:14:38;49330.66;;;-144.43;72.59
37486;BME280;23341;50.296;18.960;2023-04-28T02:19:42;49346.63;;;-144.43;72.72
37486;BME280;23341;50.296;18.960;2023-04-28T02:24:49;49342.63;;;-144.43;73.56
37486;BME280;23341;50.296;18.960;2023-04-28T02:29:53;49346.63;;;-144.43;74.35
37486;BME280;23341;50.296;18.960;2023-04-28T02:34:58;49330.66;;;-144.43;75.38
37486;BME280;23341;50.296;18.960;2023-04-28T02:40:05;49344.63;;;-144.43;77.63
37486;BME280;23341;50.296;18.960;2023-04-28T02:45:10;49356.63;;;-144.43;78.60
37486;BME280;23341;50.296;18.960;2023-04-28T02:50:14;49386.59;;;-144.43;80.61
37486;BME280;23341;50.296;18.960;2023-04-28T02:55:20;49408.59;;;-144.43;81.53
37486;BME280;23341;50.296;18.960;2023-04-28T03:00:27;49422.59;;;-144.43;82.60
37486;BME280;23341;50.296;18.960;2023-04-28T03:05:31;49436.56;;;-144.43;83.14
37486;BME280;23341;50.296;18.960;2023-04-28T03:10:37;49498.53;;;-144.43;83.39
37486;BME280;23341;50.296;18.960;2023-04-28T03:15:41;49476.53;;;-144.43;84.10
37486;BME280;23341;50.296;18.960;2023-04-28T03:20:46;49448.56;;;-144.43;83.30
37486;BME280;23341;50.296;18.960;2023-04-28T03:25:52;49428.59;;;-144.43;81.04
37486;BME280;23341;50.296;18.960;2023-04-28T03:30:56;49412.59;;;-144.43;80.71
37486;BME280;23341;50.296;18.960;2023-04-28T03:36:02;49414.59;;;-144.43;80.37
37486;BME280;23341;50.296;18.960;2023-04-28T03:41:08;49402.59;;;-144.43;79.61
37486;BME280;23341;50.296;18.960;2023-04-28T03:46:38;49432.56;;;-144.43;79.64
37486;BME280;23341;50.296;18.960;2023-04-28T03:51:43;49368.63;;;-144.43;80.92
37486;BME280;23341;50.296;18.960;2023-04-28T03:56:51;49432.56;;;-144.43;79.92
37486;BME280;23341;50.296;18.960;2023-04-28T04:01:55;49406.59;;;-144.43;80.01
37486;BME280;23341;50.296;18.960;2023-04-28T04:07:00;49410.59;;;-144.43;79.31
37486;BME280;23341;50.296;18.960;2023-04-28T04:12:06;49440.56;;;-144.43;79.24
37486;BME280;23341;50.296;18.960;2023-04-28T04:17:11;49434.56;;;-144.43;79.18
37486;BME280;23341;50.296;18.960;2023-04-28T04:22:17;49430.56;;;-144.43;79.18
37486;BME280;23341;50.296;18.960;2023-04-28T04:27:22;49442.56;;;-144.43;78.67
37486;BME280;23341;50.296;18.960;2023-04-28T04:32:27;49426.59;;;-144.43;77.60
37486;BME280;23341;50.296;18.960;2023-04-28T04:37:32;49426.59;;;-144.43;76.93
37486;BME280;23341;50.296;18.960;2023-04-28T04:42:38;49442.56;;;-144.43;76.52
37486;BME280;23341;50.296;18.960;2023-04-28T04:47:53;49452.56;;;-144.43;73.99
37486;BME280;23341;50.296;18.960;2023-04-28T04:52:58;49462.56;;;-144.43;73.31
37486;BME280;23341;50.296;18.960;2023-04-28T04:58:04;49474.56;;;-144.43;70.61
37486;BME280;23341;50.296;18.960;2023-04-28T05:03:27;49482.53;;;-144.43;67.93
37486;BME280;23341;50.296;18.960;2023-04-28T05:08:33;49550.50;;;-144.43;64.94
37486;BME280;23341;50.296;18.960;2023-04-28T05:13:39;49554.50;;;-144.43;61.12
37486;BME280;23341;50.296;18.960;2023-04-28T05:18:43;49680.41;;;-144.43;56.51
37486;BME280;23341;50.296;18.960;2023-04-28T05:23:49;49744.38;;;-144.43;52.49
37486;BME280;23341;50.296;18.960;2023-04-28T05:28:55;49744.38;;;-144.43;49.44
37486;BME280;23341;50.296;18.960;2023-04-28T05:34:00;49718.41;;;-144.43;50.28
37486;BME280;23341;50.296;18.960;2023-04-28T05:39:04;49554.50;;;-144.43;51.42
37486;BME280;23341;50.296;18.960;2023-04-28T05:44:10;49506.53;;;-144.43;52.87
37486;BME280;23341;50.296;18.960;2023-04-28T05:49:15;49526.50;;;-144.43;54.78
37486;BME280;23341;50.296;18.960;2023-04-28T05:54:19;49482.53;;;-144.43;55.88
37486;BME280;23341;50.296;18.960;2023-04-28T05:59:28;49498.53;;;-144.43;56.34
37486;BME280;23341;50.296;18.960;2023-04-28T06:04:33;49482.53;;;-144.43;56.27
37486;BME280;23341;50.296;18.960;2023-04-28T06:09:38;49482.53;;;-144.43;55.37
37486;BME280;23341;50.296;18.960;2023-04-28T06:14:44;49520.53;;;-144.43;53.07
37486;BME280;23341;50.296;18.960;2023-04-28T06:19:48;49500.53;;;-144.43;52.76
37486;BME280;23341;50.296;18.960;2023-04-28T06:24:53;49560.50;;;-144.43;51.07
37486;BME280;23341;50.296;18.960;2023-04-28T06:30:07;49574.47;;;-144.43;49.94
37486;BME280;23341;50.296;18.960;2023-04-28T06:35:14;49584.47;;;-144.43;49.30
37486;BME280;23341;50.296;18.960;2023-04-28T06:40:18;49586.47;;;-144.43;49.65
37486;BME280;23341;50.296;18.960;2023-04-28T06:45:28;49554.50;;;-144.43;48.88
37486;BME280;23341;50.296;18.960;2023-04-28T06:50:33;49562.50;;;-144.43;46.28
37486;BME280;23341;50.296;18.960;2023-04-28T06:55:41;49806.34;;;-144.43;41.20
37486;BME280;23341;50.296;18.960;2023-04-28T07:00:47;50192.16;;;-144.43;35.38
37486;BME280;23341;50.296;18.960;2023-04-28T07:05:51;50102.19;;;-144.43;34.35
37486;BME280;23341;50.296;18.960;2023-04-28T07:10:55;49978.25;;;-144.43;35.23
37486;BME280;23341;50.296;18.960;2023-04-28T07:16:01;50252.13;;;-144.43;33.65
37486;BME280;23341;50.296;18.960;2023-04-28T07:21:05;50350.06;;;-144.43;31.97
37486;BME280;23341;50.296;18.960;2023-04-28T07:26:10;50288.09;;;-144.43;32.89
37486;BME280;23341;50.296;18.960;2023-04-28T07:31:19;50450.03;;;-144.43;30.63
37486;BME280;23341;50.296;18.960;2023-04-28T07:36:23;50530.00;;;-144.43;29.46
37486;BME280;23341;50.296;18.960;2023-04-28T07:41:28;50579.97;;;-144.43;29.48
37486;BME280;23341;50.296;18.960;2023-04-28T07:46:34;50430.03;;;-144.43;29.21
37486;BME280;23341;50.296;18.960;2023-04-28T07:51:39;50506.00;;;-144.43;29.00
37486;BME280;23341;50.296;18.960;2023-04-28T07:56:43;50396.06;;;-144.43;29.04
37486;BME280;23341;50.296;18.960;2023-04-28T08:01:49;50663.94;;;-144.43;28.01
37486;BME280;23341;50.296;18.960;2023-04-28T08:06:53;50605.97;;;-144.43;27.99
37486;BME280;23341;50.296;18.960;2023-04-28T08:11:58;50575.97;;;-144.43;27.91
37486;BME280;23341;50.296;18.960;2023-04-28T08:17:04;50791.91;;;-144.43;27.04
37486;BME280;23341;50.296;18.960;2023-04-28T08:22:08;50631.97;;;-144.43;26.02
37486;BME280;23341;50.296;18.960;2023-04-28T08:27:13;50701.94;;;-144.43;26.14
37486;BME280;23341;50.296;18.960;2023-04-28T08:32:19;50550.00;;;-144.43;25.74
37486;BME280;23341;50.296;18.960;2023-04-28T08:37:23;50532.00;;;-144.43;26.89
37486;BME280;23341;50.296;18.960;2023-04-28T08:42:28;50226.13;;;-144.43;27.64
37486;BME280;23341;50.296;18.960;2023-04-28T08:47:36;50130.19;;;-144.43;28.53
37486;BME280;23341;50.296;18.960;2023-04-28T08:52:41;50152.16;;;-144.43;28.79
37486;BME280;23341;50.296;18.960;2023-04-28T08:57:49;50368.06;;;-144.43;27.95
37486;BME280;23341;50.296;18.960;2023-04-28T09:02:55;50216.13;;;-144.43;28.71
37486;BME280;23341;50.296;18.960;2023-04-28T09:08:01;50256.13;;;-144.43;29.01
37486;BME280;23341;50.296;18.960;2023-04-28T09:13:05;50222.13;;;-144.43;28.96
37486;BME280;23341;50.296;18.960;2023-04-28T09:18:13;50344.06;;;-144.43;28.66
37486;BME280;23341;50.296;18.960;2023-04-28T09:23:19;50130.19;;;-144.43;30.13
37486;BME280;23341;50.296;18.960;2023-04-28T09:28:24;50050.22;;;-144.43;30.42
37486;BME280;23341;50.296;18.960;2023-04-28T09:33:30;50096.19;;;-144.43;30.72
37486;BME280;23341;50.296;18.960;2023-04-28T09:38:42;50000.25;;;-144.43;31.34
37486;BME280;23341;50.296;18.960;2023-04-28T09:43:46;50196.16;;;-144.43;30.63
37486;BME280;23341;50.296;18.960;2023-04-28T09:48:59;50224.13;;;-144.43;30.54
37486;BME280;23341;50.296;18.960;2023-04-28T09:54:05;50394.06;;;-144.43;29.48
37486;BME280;23341;50.296;18.960;2023-04-28T09:59:10;50298.09;;;-144.43;29.88
37486;BME280;23341;50.296;18.960;2023-04-28T10:04:16;50190.16;;;-144.43;30.13
37486;BME280;23341;50.296;18.960;2023-04-28T10:09:21;50182.16;;;-144.43;30.54
37486;BME280;23341;50.296;18.960;2023-04-28T10:14:30;50194.16;;;-144.43;31.15
37486;BME280;23341;50.296;18.960;2023-04-28T10:19:36;50082.19;;;-144.43;31.16
37486;BME280;23341;50.296;18.960;2023-04-28T10:24:52;50058.22;;;-144.43;31.29
37486;BME280;23341;50.296;18.960;2023-04-28T10:30:11;50182.16;;;-144.43;30.23
37486;BME280;23341;50.296;18.960;2023-04-28T10:35:44;50140.16;;;-144.43;30.96
37486;BME280;23341;50.296;18.960;2023-04-28T10:40:50;50278.09;;;-144.43;30.69
37486;BME280;23341;50.296;18.960;2023-04-28T10:46:02;50210.13;;;-144.43;30.14
37486;BME280;23341;50.296;18.960;2023-04-28T10:51:33;50182.16;;;-144.43;30.36
37486;BME280;23341;50.296;18.960;2023-04-28T10:56:37;50398.06;;;-144.43;30.09
37486;BME280;23341;50.296;18.960;2023-04-28T11:01:43;50454.03;;;-144.43;29.20
37486;BME280;23341;50.296;18.960;2023-04-28T11:07:09;50494.00;;;-144.43;29.00
37486;BME280;23341;50.296;18.960;2023-04-28T11:12:15;50348.06;;;-144.43;29.84
37486;BME280;23341;50.296;18.960;2023-04-28T11:17:38;50402.06;;;-144.43;29.28
37486;BME280;23341;50.296;18.960;2023-04-28T11:22:44;50709.94;;;-144.43;28.73
37486;BME280;23341;50.296;18.960;2023-04-28T11:27:49;50548.00;;;-144.43;28.59
37486;BME280;23341;50.296;18.960;2023-04-28T11:32:54;50358.06;;;-144.43;29.24
37486;BME280;23341;50.296;18.960;2023-04-28T11:38:03;50466.03;;;-144.43;28.50
37486;BME280;23341;50.296;18.960;2023-04-28T11:43:07;50404.06;;;-144.43;28.64
37486;BME280;23341;50.296;18.960;2023-04-28T11:48:19;50416.03;;;-144.43;28.70
37486;BME280;23341;50.296;18.960;2023-04-28T11:53:41;50500.00;;;-144.43;28.76
37486;BME280;23341;50.296;18.960;2023-04-28T11:58:45;50645.97;;;-144.43;27.64
37486;BME280;23341;50.296;18.960;2023-04-28T12:03:49;50506.00;;;-144.43;28.71
37486;BME280;23341;50.296;18.960;2023-04-28T12:08:55;50635.97;;;-144.43;27.50
37486;BME280;23341;50.296;18.960;2023-04-28T12:14:06;50753.91;;;-144.43;27.48
37486;BME280;23341;50.296;18.960;2023-04-28T12:19:12;50356.06;;;-144.43;28.83
37486;BME280;23341;50.296;18.960;2023-04-28T12:24:19;50422.03;;;-144.43;28.83
37486;BME280;23341;50.296;18.960;2023-04-28T12:29:37;50304.09;;;-144.43;29.13
37486;BME280;23341;50.296;18.960;2023-04-28T12:34:44;50282.09;;;-144.43;29.18
37486;BME280;23341;50.296;18.960;2023-04-28T12:39:51;50494.00;;;-144.43;28.61
37486;BME280;23341;50.296;18.960;2023-04-28T12:44:55;50468.03;;;-144.43;28.60
37486;BME280;23341;50.296;18.960;2023-04-28T12:49:59;50685.94;;;-144.43;27.51
37486;BME280;23341;50.296;18.960;2023-04-28T12:55:07;50861.88;;;-144.43;26.55
37486;BME280;23341;50.296;18.960;2023-04-28T13:00:12;50651.94;;;-144.43;27.21
37486;BME280;23341;50.296;18.960;2023-04-28T13:05:18;50847.88;;;-144.43;27.00
37486;BME280;23341;50.296;18.960;2023-04-28T13:10:23;50933.88;;;-144.43;26.20
37486;BME280;23341;50.296;18.960;2023-04-28T13:15:28;51049.84;;;-144.43;26.32
37486;BME280;23341;50.296;18.960;2023-04-28T13:20:33;51061.81;;;-144.43;26.04
37486;BME280;23341;50.296;18.960;2023-04-28T13:25:39;51205.78;;;-144.43;25.85
37486;BME280;23341;50.296;18.960;2023-04-28T13:30:46;51553.72;;;-144.43;24.94
37486;BME280;23341;50.296;18.960;2023-04-28T13:35:51;51753.72;;;-144.43;24.53
37486;BME280;23341;50.296;18.960;2023-04-28T13:40:57;51455.75;;;-144.43;24.65
37486;BME280;23341;50.296;18.960;2023-04-28T13:46:01;51673.72;;;-144.43;24.23
37486;BME280;23341;50.296;18.960;2023-04-28T13:51:10;51953.69;;;-144.43;23.65
37486;BME280;23341;50.296;18.960;2023-04-28T13:56:16;51937.69;;;-144.43;23.41
37486;BME280;23341;50.296;18.960;2023-04-28T14:01:20;51323.78;;;-144.43;24.25
37486;BME280;23341;50.296;18.960;2023-04-28T14:06:26;50725.94;;;-144.43;25.77
37486;BME280;23341;50.296;18.960;2023-04-28T14:11:32;50434.03;;;-144.43;27.50
37486;BME280;23341;50.296;18.960;2023-04-28T14:16:36;50725.94;;;-144.43;26.85
37486;BME280;23341;50.296;18.960;2023-04-28T14:21:40;50442.03;;;-144.43;27.63
37486;BME280;23341;50.296;18.960;2023-04-28T14:26:46;50623.97;;;-144.43;27.49
37486;BME280;23341;50.296;18.960;2023-04-28T14:31:51;50685.94;;;-144.43;26.98
37486;BME280;23341;50.296;18.960;2023-04-28T14:36:55;50991.84;;;-144.43;25.97
37486;BME280;23341;50.296;18.960;2023-04-28T14:42:00;50615.97;;;-144.43;27.31
37486;BME280;23341;50.296;18.960;2023-04-28T14:47:05;50853.88;;;-144.43;26.77
37486;BME280;23341;50.296;18.960;2023-04-28T14:52:09;50707.94;;;-144.43;27.13
37486;BME280;23341;50.296;18.960;2023-04-28T14:57:15;50562.00;;;-144.43;28.08
37486;BME280;23341;50.296;18.960;2023-04-28T15:02:20;50424.03;;;-144.43;28.54
37486;BME280;23341;50.296;18.960;2023-04-28T15:07:30;50254.13;;;-144.43;29.27
37486;BME280;23341;50.296;18.960;2023-04-28T15:12:35;50134.16;;;-144.43;30.23
37486;BME280;23341;50.296;18.960;2023-04-28T15:17:39;50166.16;;;-144.43;30.39
37486;BME280;23341;50.296;18.960;2023-04-28T15:22:44;50160.16;;;-144.43;30.13
37486;BME280;23341;50.296;18.960;2023-04-28T15:27:50;50204.13;;;-144.43;29.83
37486;BME280;23341;50.296;18.960;2023-04-28T15:32:54;50172.16;;;-144.43;30.54
37486;BME280;23341;50.296;18.960;2023-04-28T15:37:58;50140.16;;;-144.43;30.72
37486;BME280;23341;50.296;18.960;2023-04-28T15:43:05;50104.19;;;-144.43;30.99
37486;BME280;23341;50.296;18.960;2023-04-28T15:48:09;50150.16;;;-144.43;30.76
37486;BME280;23341;50.296;18.960;2023-04-28T15:53:14;50188.16;;;-144.43;30.58
37486;BME280;23341;50.296;18.960;2023-04-28T15:58:20;50138.16;;;-144.43;30.39
37486;BME280;23341;50.296;18.960;2023-04-28T16:03:25;50190.16;;;-144.43;30.51
37486;BME280;23341;50.296;18.960;2023-04-28T16:08:30;50102.19;;;-144.43;30.74
37486;BME280;23341;50.296;18.960;2023-04-28T16:13:35;50074.19;;;-144.43;31.02
37486;BME280;23341;50.296;18.960;2023-04-28T16:18:40;50056.22;;;-144.43;30.89
37486;BME280;23341;50.296;18.960;2023-04-28T16:23:44;50082.19;;;-144.43;30.91
37486;BME280;23341;50.296;18.960;2023-04-28T16:28:50;50056.22;;;-144.43;31.38
37486;BME280;23341;50.296;18.960;2023-04-28T16:33:54;50046.22;;;-144.43;31.71
37486;BME280;23341;50.296;18.960;2023-04-28T16:38:59;49994.25;;;-144.43;31.86
37486;BME280;23341;50.296;18.960;2023-04-28T16:44:04;49946.28;;;-144.43;32.21
37486;BME280;23341;50.296;18.960;2023-04-28T16:49:10;50000.25;;;-144.43;32.27
37486;BME280;23341;50.296;18.960;2023-04-28T16:54:14;50038.22;;;-144.43;33.02
37486;BME280;23341;50.296;18.960;2023-04-28T16:59:20;49970.25;;;-144.43;32.61
37486;BME280;23341;50.296;18.960;2023-04-28T17:04:25;49944.28;;;-144.43;33.20
37486;BME280;23341;50.296;18.960;2023-04-28T17:09:30;49882.31;;;-144.43;33.32
37486;BME280;23341;50.296;18.960;2023-04-28T17:14:38;49904.28;;;-144.43;33.42
37486;BME280;23341;50.296;18.960;2023-04-28T17:19:42;49916.28;;;-144.43;33.65
37486;BME280;23341;50.296;18.960;2023-04-28T17:24:46;49940.28;;;-144.43;33.86
37486;BME280;23341;50.296;18.960;2023-04-28T17:29:52;49940.28;;;-144.43;34.05
37486;BME280;23341;50.296;18.960;2023-04-28T17:34:56;49932.28;;;-144.43;34.06
37486;BME280;23341;50.296;18.960;2023-04-28T17:40:00;49948.28;;;-144.43;35.33
37486;BME280;23341;50.296;18.960;2023-04-28T17:45:09;49900.28;;;-144.43;37.88
37486;BME280;23341;50.296;18.960;2023-04-28T17:50:13;49892.28;;;-144.43;39.38
37486;BME280;23341;50.296;18.960;2023-04-28T17:55:18;49886.31;;;-144.43;40.31
37486;BME280;23341;50.296;18.960;2023-04-28T18:00:23;49850.31;;;-144.43;40.88
37486;BME280;23341;50.296;18.960;2023-04-28T18:05:28;49854.31;;;-144.43;41.38
37486;BME280;23341;50.296;18.960;2023-04-28T18:10:33;49846.31;;;-144.43;42.08
37486;BME280;23341;50.296;18.960;2023-04-28T18:15:39;49798.34;;;-144.43;42.05
37486;BME280;23341;50.296;18.960;2023-04-28T18:20:43;49830.34;;;-144.43;41.68
37486;BME280;23341;50.296;18.960;2023-04-28T18:25:47;49834.34;;;-144.43;42.43
37486;BME280;23341;50.296;18.960;2023-04-28T18:30:53;49872.31;;;-144.43;42.46
37486;BME280;23341;50.296;18.960;2023-04-28T18:36:00;49854.31;;;-144.43;42.46
37486;BME280;23341;50.296;18.960;2023-04-28T18:41:15;49840.31;;;-144.43;43.64
37486;BME280;23341;50.296;18.960;2023-04-28T18:46:21;49890.31;;;-144.43;43.35
37486;BME280;23341;50.296;18.960;2023-04-28T18:51:25;49842.31;;;-144.43;42.90
37486;BME280;23341;50.296;18.960;2023-04-28T18:56:30;49798.34;;;-144.43;43.51
37486;BME280;23341;50.296;18.960;2023-04-28T19:01:37;49794.34;;;-144.43;43.50
37486;BME280;23341;50.296;18.960;2023-04-28T19:06:47;49794.34;;;-144.43;44.36
37486;BME280;23341;50.296;18.960;2023-04-28T19:11:52;49824.34;;;-144.43;43.80
37486;BME280;23341;50.296;18.960;2023-04-28T19:16:58;49832.34;;;-144.43;43.66
37486;BME280;23341;50.296;18.960;2023-04-28T19:22:03;49780.34;;;-144.43;43.94
37486;BME280;23341;50.296;18.960;2023-04-28T19:27:08;49734.38;;;-144.43;44.22
37486;BME280;23341;50.296;18.960;2023-04-28T19:32:14;49730.38;;;-144.43;44.54
37486;BME280;23341;50.296;18.960;2023-04-28T19:37:19;49762.38;;;-144.43;44.63
37486;BME280;23341;50.296;18.960;2023-04-28T19:42:23;49676.41;;;-144.43;44.87
37486;BME280;23341;50.296;18.960;2023-04-28T19:47:29;49676.41;;;-144.43;45.41
37486;BME280;23341;50.296;18.960;2023-04-28T19:52:35;49690.41;;;-144.43;45.58
37486;BME280;23341;50.296;18.960;2023-04-28T19:57:40;49654.44;;;-144.43;46.57
37486;BME280;23341;50.296;18.960;2023-04-28T20:02:45;49632.44;;;-144.43;47.20
37486;BME280;23341;50.296;18.960;2023-04-28T20:07:50;49674.44;;;-144.43;48.08
37486;BME280;23341;50.296;18.960;2023-04-28T20:12:58;49650.44;;;-144.43;49.76
37486;BME280;23341;50.296;18.960;2023-04-28T20:18:04;49624.44;;;-144.43;50.47
37486;BME280;23341;50.296;18.960;2023-04-28T20:23:08;49610.47;;;-144.43;51.47
37486;BME280;23341;50.296;18.960;2023-04-28T20:28:13;49606.47;;;-144.43;50.93
37486;BME280;23341;50.296;18.960;2023-04-28T20:33:18;49548.50;;;-144.43;51.24
37486;BME280;23341;50.296;18.960;2023-04-28T20:38:23;49558.50;;;-144.43;50.35
37486;BME280;23341;50.296;18.960;2023-04-28T20:43:27;49474.56;;;-144.43;48.36
37486;BME280;23341;50.296;18.960;2023-04-28T20:48:33;49518.53;;;-144.43;47.67
37486;BME280;23341;50.296;18.960;2023-04-28T20:53:38;49482.53;;;-144.43;47.72
37486;BME280;23341;50.296;18.960;2023-04-28T20:58:42;49520.53;;;-144.43;47.75
37486;BME280;23341;50.296;18.960;2023-04-28T21:03:48;49494.53;;;-144.43;47.56
37486;BME280;23341;50.296;18.960;2023-04-28T21:08:52;49482.53;;;-144.43;46.82
37486;BME280;23341;50.296;18.960;2023-04-28T21:13:56;49518.53;;;-144.43;46.29
37486;BME280;23341;50.296;18.960;2023-04-28T21:19:02;49474.56;;;-144.43;46.34
37486;BME280;23341;50.296;18.960;2023-04-28T21:24:06;49500.53;;;-144.43;46.16
37486;BME280;23341;50.296;18.960;2023-04-28T21:29:11;49536.50;;;-144.43;47.51
37486;BME280;23341;50.296;18.960;2023-04-28T21:34:17;49506.53;;;-144.43;47.57
37486;BME280;23341;50.296;18.960;2023-04-28T21:39:21;49462.56;;;-144.43;46.83
37486;BME280;23341;50.296;18.960;2023-04-28T21:44:25;49422.59;;;-144.43;47.42
37486;BME280;23341;50.296;18.960;2023-04-28T21:49:31;49498.53;;;-144.43;48.26
37486;BME280;23341;50.296;18.960;2023-04-28T21:54:35;49506.53;;;-144.43;49.82
37486;BME280;23341;50.296;18.960;2023-04-28T21:59:40;49506.53;;;-144.43;48.41
37486;BME280;23341;50.296;18.960;2023-04-28T22:04:45;49498.53;;;-144.43;46.21
37486;BME280;23341;50.296;18.960;2023-04-28T22:09:50;49468.56;;;-144.43;46.08
37486;BME280;23341;50.296;18.960;2023-04-28T22:14:54;49506.53;;;-144.43;47.34
37486;BME280;23341;50.296;18.960;2023-04-28T22:20:00;49560.50;;;-144.43;47.08
37486;BME280;23341;50.296;18.960;2023-04-28T22:25:06;49532.50;;;-144.43;46.49
37486;BME280;23341;50.296;18.960;2023-04-28T22:30:11;49488.53;;;-144.43;45.77
37486;BME280;23341;50.296;18.960;2023-04-28T22:35:17;49504.53;;;-144.43;45.42
37486;BME280;23341;50.296;18.960;2023-04-28T22:40:21;49490.53;;;-144.43;45.18
37486;BME280;23341;50.296;18.960;2023-04-28T22:45:25;49516.53;;;-144.43;46.33
37486;BME280;23341;50.296;18.960;2023-04-28T22:50:31;49534.50;;;-144.43;47.06
37486;BME280;23341;50.296;18.960;2023-04-28T22:55:36;49516.53;;;-144.43;46.61
37486;BME280;23341;50.296;18.960;2023-04-28T23:00:40;49554.50;;;-144.43;46.41
37486;BME280;23341;50.296;18.960;2023-04-28T23:05:46;49542.50;;;-144.43;46.69
37486;BME280;23341;50.296;18.960;2023-04-28T23:10:53;49524.53;;;-144.43;45.20
37486;BME280;23341;50.296;18.960;2023-04-28T23:15:58;49520.53;;;-144.43;45.62
37486;BME280;23341;50.296;18.960;2023-04-28T23:21:04;49448.56;;;-144.43;45.97
37486;BME280;23341;50.296;18.960;2023-04-28T23:26:08;49464.56;;;-144.43;46.21
37486;BME280;23341;50.296;18.960;2023-04-28T23:31:12;49402.59;;;-144.43;47.00
37486;BME280;23341;50.296;18.960;2023-04-28T23:36:18;49422.59;;;-144.43;47.35
37486;BME280;23341;50.296;18.960;2023-04-28T23:41:23;49428.59;;;-144.43;47.40
37486;BME280;23341;50.296;18.960;2023-04-28T23:46:27;49402.59;;;-144.43;48.43
37486;BME280;23341;50.296;18.960;2023-04-28T23:51:33;49394.59;;;-144.43;48.51
37486;BME280;23341;50.296;18.960;2023-04-28T23:56:38;49400.59;;;-144.43;48.63
